createdAt,value
2022-10-12T00:02:22.501Z,0
2022-10-12T00:08:42.426Z,0
2022-10-12T00:15:05.439Z,0
2022-10-12T00:21:25.337Z,0
2022-10-12T00:27:48.388Z,0
2022-10-12T00:34:08.367Z,0
2022-10-12T00:40:31.363Z,0
2022-10-12T00:46:51.309Z,0
2022-10-12T00:53:14.538Z,0
2022-10-12T00:59:34.469Z,0
2022-10-12T01:05:57.413Z,0
2022-10-12T01:12:17.436Z,0
2022-10-12T01:18:40.499Z,0
2022-10-12T01:25:00.440Z,0
2022-10-12T01:31:23.519Z,0
2022-10-12T01:37:43.471Z,0
2022-10-12T01:44:06.474Z,0
2022-10-12T01:50:26.573Z,0
2022-10-12T01:56:49.483Z,0
2022-10-12T02:03:09.449Z,0
2022-10-12T02:09:32.468Z,0
2022-10-12T02:15:52.500Z,0
2022-10-12T02:22:15.360Z,0
2022-10-12T02:28:35.381Z,0
2022-10-12T02:34:58.338Z,0
2022-10-12T02:41:18.319Z,0
2022-10-12T02:47:41.453Z,0
2022-10-12T02:54:01.320Z,0
2022-10-12T03:00:24.451Z,0
2022-10-12T03:06:44.411Z,0
2022-10-12T03:29:50.354Z,0
2022-10-12T03:36:13.318Z,0
2022-10-12T03:42:33.335Z,0
2022-10-12T03:48:56.406Z,0
2022-10-12T03:55:16.470Z,0
2022-10-12T04:01:39.446Z,0
2022-10-12T04:07:59.384Z,0
2022-10-12T04:14:22.502Z,0
2022-10-12T04:20:42.422Z,0
2022-10-12T04:27:05.463Z,0
2022-10-12T04:33:25.326Z,0
2022-10-12T04:39:48.472Z,0
2022-10-12T04:46:08.434Z,0
2022-10-12T04:52:31.435Z,0
2022-10-12T04:58:51.421Z,0
2022-10-12T05:05:14.348Z,0
2022-10-12T05:11:34.505Z,0
2022-10-12T05:17:57.456Z,1
2022-10-12T05:24:17.464Z,1
2022-10-12T05:30:40.424Z,4
2022-10-12T05:37:00.323Z,12
2022-10-12T05:43:23.384Z,31
2022-10-12T05:49:43.392Z,62
2022-10-12T05:56:06.395Z,106
2022-10-12T06:02:26.344Z,153
2022-10-12T06:08:49.435Z,204
2022-10-12T06:15:09.467Z,253
2022-10-12T06:21:33.828Z,308
2022-10-12T06:27:52.580Z,364
2022-10-12T06:34:15.317Z,384
2022-10-12T06:40:35.350Z,456
2022-10-12T06:46:58.552Z,551
2022-10-12T06:53:18.340Z,593
2022-10-12T06:59:41.495Z,667
2022-10-12T07:06:01.357Z,721
2022-10-12T07:12:24.504Z,756
2022-10-12T07:18:44.369Z,803
2022-10-12T07:25:07.322Z,839
2022-10-12T07:31:27.430Z,891
2022-10-12T07:37:50.347Z,911
2022-10-12T07:44:10.342Z,969
2022-10-12T07:50:33.399Z,968
2022-10-12T07:56:53.433Z,1090
2022-10-12T08:03:16.457Z,1075
2022-10-12T08:09:36.506Z,1176
2022-10-12T08:33:17.373Z,1599
2022-10-12T08:39:40.315Z,1740
2022-10-12T08:46:00.429Z,1979
2022-10-12T08:52:23.486Z,2312
2022-10-12T08:58:43.330Z,2708
2022-10-12T09:05:06.493Z,2801
2022-10-12T09:11:26.462Z,2371
2022-10-12T09:17:49.454Z,2224
2022-10-12T09:24:09.347Z,2930
2022-10-12T09:30:32.435Z,2254
2022-10-12T09:36:52.380Z,2161
2022-10-12T09:43:15.403Z,2064
2022-10-12T09:49:35.426Z,2172
2022-10-12T09:55:58.379Z,2900
2022-10-12T10:02:18.407Z,3044
2022-10-12T10:08:41.429Z,3122
2022-10-12T10:15:01.349Z,4179
2022-10-12T10:21:24.361Z,4508
2022-10-12T10:27:44.477Z,4559
2022-10-12T10:34:07.428Z,4919
2022-10-12T10:40:27.368Z,4802
2022-10-12T10:46:50.375Z,5546
2022-10-12T10:53:10.712Z,2949
2022-10-12T10:59:33.641Z,2143
2022-10-12T11:05:53.497Z,3170
2022-10-12T11:12:16.380Z,3433
2022-10-12T11:18:36.390Z,3891
2022-10-12T11:24:59.481Z,4110
2022-10-12T11:31:19.398Z,4185
2022-10-12T11:37:42.406Z,5663
2022-10-12T11:44:02.369Z,5510
2022-10-12T11:50:25.440Z,5269
2022-10-12T11:56:45.332Z,6178
2022-10-12T12:03:08.491Z,3511
2022-10-12T12:09:28.423Z,3553
2022-10-12T12:15:51.367Z,4255
2022-10-12T12:22:11.469Z,4567
2022-10-12T12:28:34.408Z,5485
2022-10-12T12:34:57.919Z,6094
2022-10-12T12:41:17.433Z,6730
2022-10-12T12:47:45.392Z,5103
2022-10-12T12:54:00.354Z,3180
2022-10-12T13:00:20.573Z,2944
2022-10-12T13:06:43.383Z,3211
2022-10-12T13:13:03.337Z,3069
2022-10-12T13:19:26.376Z,3419
2022-10-12T13:25:46.359Z,3792
2022-10-12T13:48:59.568Z,3353
2022-10-12T13:55:16.359Z,2859
2022-10-12T14:01:36.383Z,2666
2022-10-12T14:07:59.364Z,2501
2022-10-12T14:14:19.415Z,1983
2022-10-12T14:20:42.492Z,1688
2022-10-12T14:27:02.367Z,1838
2022-10-12T14:33:25.354Z,1768
2022-10-12T14:39:45.331Z,1747
2022-10-12T14:46:08.416Z,1743
2022-10-12T14:52:28.368Z,1426
2022-10-12T14:58:51.369Z,1401
2022-10-12T15:05:11.438Z,1139
2022-10-12T15:11:34.409Z,1190
2022-10-12T15:17:54.442Z,1156
2022-10-12T15:24:17.358Z,938
2022-10-12T15:30:47.408Z,1035
2022-10-12T15:37:01.201Z,1001
2022-10-12T15:43:20.464Z,788
2022-10-12T15:49:43.482Z,706
2022-10-12T15:56:03.337Z,525
2022-10-12T16:02:26.452Z,424
2022-10-12T16:08:46.394Z,394
2022-10-12T16:15:09.393Z,398
2022-10-12T16:21:32.462Z,324
2022-10-12T16:27:55.360Z,236
2022-10-12T16:34:15.400Z,168
2022-10-12T16:40:38.428Z,102
2022-10-12T16:46:58.405Z,56
2022-10-12T16:53:21.374Z,25
2022-10-12T16:59:41.324Z,9
2022-10-12T17:06:04.401Z,3
2022-10-12T17:12:24.994Z,1
2022-10-12T17:18:48.383Z,0
2022-10-12T17:25:08.386Z,0
2022-10-12T17:31:31.331Z,0
2022-10-12T17:37:51.400Z,0
2022-10-12T17:44:14.319Z,0
2022-10-12T17:50:34.396Z,0
2022-10-12T17:56:57.525Z,0
2022-10-12T18:03:18.526Z,0
2022-10-12T18:09:40.505Z,0
2022-10-12T18:16:00.369Z,0
2022-10-12T18:22:23.336Z,0
2022-10-12T18:28:43.592Z,0
2022-10-12T18:35:06.367Z,0
2022-10-12T18:41:26.452Z,0
2022-10-12T19:05:15.358Z,0
2022-10-12T19:11:38.355Z,0
2022-10-12T19:17:58.348Z,0
2022-10-12T19:24:21.346Z,0
2022-10-12T19:30:41.413Z,0
2022-10-12T19:37:04.463Z,0
2022-10-12T19:43:24.618Z,0
2022-10-12T19:49:47.428Z,0
2022-10-12T19:56:07.609Z,0
2022-10-12T20:02:30.354Z,0
2022-10-12T20:08:50.343Z,0
2022-10-12T20:15:13.407Z,0
2022-10-12T20:21:33.552Z,0
2022-10-12T20:27:56.393Z,0
2022-10-12T20:34:16.360Z,0
2022-10-12T20:40:39.443Z,0
2022-10-12T20:46:59.481Z,0
2022-10-12T20:53:22.373Z,0
2022-10-12T20:59:42.397Z,0
2022-10-12T21:06:05.416Z,0
2022-10-12T21:12:25.437Z,0
2022-10-12T21:18:48.410Z,0
2022-10-12T21:25:08.517Z,0
2022-10-12T21:31:32.694Z,0
2022-10-12T21:37:51.523Z,0
2022-10-12T21:44:14.367Z,0
2022-10-12T21:50:34.312Z,0
2022-10-12T21:56:57.394Z,0
2022-10-12T22:21:12.369Z,0
2022-10-12T22:27:32.310Z,0
2022-10-12T22:33:55.389Z,0
2022-10-12T22:40:15.398Z,0
2022-10-12T22:46:38.364Z,0
2022-10-12T22:52:58.334Z,0
2022-10-12T22:59:21.475Z,0
2022-10-12T23:05:41.405Z,0
2022-10-12T23:12:04.344Z,0
2022-10-12T23:18:24.491Z,0
2022-10-12T23:24:47.405Z,0
2022-10-12T23:31:07.407Z,0
2022-10-12T23:37:30.378Z,0
2022-10-12T23:43:51.197Z,0
2022-10-12T23:50:14.408Z,0
2022-10-12T23:56:34.510Z,0
